• Join FlightAware (Why Join?)
  • Login
  • US Flag 
07:07PM EDT


 

Airport Tracker/Info


-or-


 

Live Flight TrackerFlight Track Log ✈ EJA941 ✈ 30-Jun-2013 ✈ KHPN - KSOP

Flight Track Log - Related Links

Times and Time Zones

All times are in EDT time to prevent confusion due to time zone crossing. See the EJA941 flight status page for this flight to view local times or setup timezone preferences in your user account.

Time Position Orientation Groundspeed Altitude Reporting Facility
EDT Latitude Longitude Course Direction KTS MPH feet Rate Location/Type
06:45PM 41.0833 -73.8167 219° Southwest 212 244 3,500  Level New York TRACON
06:46PM 41.0667 -73.9000 255° West 250 288 5,600 2,460 Climbing New York TRACON
06:47PM 41.0000 -73.9500 210° Southwest 270 311 8,700 1,740 Climbing New York TRACON
06:48PM 40.9333 -73.9833 201° Southwest 280 322 9,100 1,020 Climbing New York TRACON
06:49PM 40.8500 -74.0333 204° Southwest 289 333 10,800 1,320 Climbing New York TRACON
06:50PM 40.6656 -74.1391 219° Southwest  Level Estimated
06:50PM 40.7667 -74.0833 204° Southwest 337 388 11,900  Level New York TRACON
06:51PM 40.5852 -74.2247 219° Southwest  Level Estimated
06:51PM 40.6667 -74.1167 194° South 382 440 12,100  Level New York TRACON
06:53PM 40.4464 -74.1608 189° South 395 455 14,700 1,320 Climbing New York Center
06:54PM 40.3436 -74.1831 189° South 379 436 16,400 780 Climbing New York Center
06:56PM 40.2413 -74.2974 220° Southwest  Level Estimated
06:56PM 40.1317 -74.2269 220° Southwest 388 447 17,200  Level New York Center
06:57PM 40.0225 -74.2539 191° South 399 459 18,700 1,380 Climbing New York Center
06:58PM 39.9375 -74.3147 209° Southwest 399 459 20,000 1,320 Climbing New York Center
06:59PM 39.8306 -74.4161 216° Southwest 368 423 21,500 1,260 Climbing Washington Center
07:00PM 39.7525 -74.5175 225° Southwest 383 441 22,700 1,140 Climbing Washington Center
07:01PM 39.6783 -74.6183 226° Southwest 388 447 23,900 600 Climbing Washington Center
07:02PM 39.5978 -74.7217 225° Southwest 401 461 24,000  Climbing Washington Center
07:03PM 39.5339 -74.8086 226° Southwest 411 473 24,000  Level Washington Center
07:04PM 39.4450 -74.9250 225° Southwest 411 473 24,000  Level Washington Center
07:05PM 39.3642 -75.0306 225° Southwest 411 473 24,000  Level Washington Center
07:06PM 39.2792 -75.1303 222° Southwest 411 473 24,000  Level Washington Center
07:07PM 39.1711 -75.1819 200° South 411 473 24,000  Level Washington Center
07:08PM 39.0500 -75.1853 181° South 406 467 24,000  Level Washington Center
07:09PM 38.9292 -75.1886 181° South 426 490 24,000  Level Washington Center
07:10PM 38.8167 -75.2186 192° South 426 490 24,000  Level Washington Center
07:11PM 38.7192 -75.3044 214° Southwest 406 467 24,000  Level Washington Center
07:12PM 38.6233 -75.3897 215° Southwest 413 475 24,000  Level Washington Center
07:13PM 38.5275 -75.4722 214° Southwest 425 489 24,000  Level Washington Center
07:14PM 38.4317 -75.5600 216° Southwest 425 489 24,000  Level Washington Center
07:15PM 38.3336 -75.6447 214° Southwest 425 489 24,000  Level Washington Center
07:16PM 38.2356 -75.7267 213° Southwest 425 489 24,000  Level Washington Center
07:17PM 38.1394 -75.8083 214° Southwest 425 489 24,000  Level Washington Center
07:18PM 38.0456 -75.8925 215° Southwest 425 489 24,000  Level Washington Center
07:19PM 37.9472 -75.9736 213° Southwest 425 489 24,000  Level Washington Center
07:20PM 37.8489 -76.0572 214° Southwest 420 483 24,000  Level Washington Center
07:21PM 37.7444 -76.1539 216° Southwest 420 483 24,000  Level Washington Center
07:22PM 37.6542 -76.2239 212° Southwest 420 483 24,000  Level Washington Center
07:23PM 37.5578 -76.3069 214° Southwest 420 483 24,000  Level Washington Center
07:24PM 37.4594 -76.3897 214° Southwest 425 489 24,000  Level Washington Center
07:25PM 37.3608 -76.4725 214° Southwest 425 489 24,000  Level Washington Center
07:26PM 37.2642 -76.5497 212° Southwest 420 483 24,000 -480 Level Washington Center
07:27PM 37.1656 -76.6344 214° Southwest 425 489 23,100 -960 Descending Washington Center
07:28PM 37.0644 -76.7214 214° Southwest 430 495 22,100 -600 Descending Washington Center
07:29PM 36.9656 -76.8033 214° Southwest 435 501 22,000 -60 Descending Washington Center
07:30PM 36.8711 -76.8822 214° Southwest 430 495 22,000  Level Washington Center
07:31PM 36.7761 -76.9611 214° Southwest 420 483 22,000  Level Washington Center
07:32PM 36.6856 -77.0372 214° Southwest 415 478 22,000  Level Washington Center
07:33PM 36.5969 -77.1208 217° Southwest 404 465 22,000  Level Washington Center
07:34PM 36.5103 -77.2072 219° Southwest 398 458 22,000  Level Washington Center
07:35PM 36.4214 -77.2931 218° Southwest 398 458 22,000  Level Washington Center
07:36PM 36.3347 -77.3761 218° Southwest 403 464 22,000  Level Washington Center
07:37PM 36.2439 -77.4567 216° Southwest 403 464 22,000  Level Washington Center
07:38PM 36.1486 -77.5444 217° Southwest 403 464 22,000  Level Washington Center
07:39PM 36.0617 -77.6294 218° Southwest 398 458 22,000  Level Washington Center
07:40PM 35.9767 -77.7147 219° Southwest 398 458 22,000  Level Washington Center
07:41PM 35.9200 -77.8389 241° Southwest 398 458 22,000 -420 Level Washington Center
07:42PM 35.8678 -77.9603 242° Southwest 408 470 21,200 -1,140 Descending Washington Center
07:43PM 35.8150 -78.0844 242° Southwest 413 475 19,800 -1,500 Descending Washington Center
07:44PM 35.7625 -78.2056 242° Southwest 407 468 18,300 -1,800 Descending Washington Center
07:45PM 35.7142 -78.3064 239° Southwest 367 422 16,500 -2,160 Descending Washington Center
07:46PM 35.6700 -78.4172 244° Southwest 361 415 14,000 -2,160 Descending Washington Center
07:47PM 35.6236 -78.5256 242° Southwest 355 409 12,000 -1,920 Descending Washington Center
07:48PM 35.5836 -78.6211 243° Southwest 337 388 10,300 -1,740 Descending Washington Center
07:49PM 35.5461 -78.7014 240° Southwest 285 328 8,600 -1,680 Descending Washington Center
07:51PM 35.2380 -79.3883 241° Southwest  Level Estimated
07:58PM 35.2380 -79.3883 54° Northeast  Level Estimated
07:59PM 35.2380 -79.3883 54° Northeast  Level Estimated
08:00PM 35.2380 -79.3883 54° Northeast  Level Estimated